Time;durP1;ratioP1;P1;durP2;ratioP2;P2;SDS_P1;SDS_P2;PMS_P1;PMS_P2;Temp;Humidity;BMP_temperature;BMP_pressure;BME280_temperature;BME280_humidity;BME280_pressure;Samples;Min_cycle;Max_cycle;Signal;HPM_P1;HPM_P2
2024/04/07 00:02:04;;;;;;;5.43;1.17;;;19.50;44.50;;;;;;6293766;28;20468;-70
2024/04/07 00:05:05;;;;;;;3.38;0.80;;;19.50;44.50;;;;;;6297478;28;20093;-70
2024/04/07 00:08:07;;;;;;;3.35;1.15;;;19.40;44.50;;;;;;6301196;28;20118;-68
2024/04/07 00:11:08;;;;;;;2.83;1.15;;;19.40;44.50;;;;;;6299602;28;20395;-68
2024/04/07 00:14:09;;;;;;;3.05;1.10;;;19.40;44.40;;;;;;6306016;28;20020;-69
2024/04/07 00:17:10;;;;;;;1.25;0.60;;;19.40;44.50;;;;;;6299625;28;20027;-69
2024/04/07 00:20:11;;;;;;;4.00;0.77;;;19.40;44.60;;;;;;6297360;28;20099;-70
2024/04/07 00:23:12;;;;;;;1.88;1.00;;;19.50;44.70;;;;;;6303254;28;20205;-69
2024/04/07 00:26:13;;;;;;;3.78;1.10;;;19.30;44.60;;;;;;6271190;28;20020;-69
2024/04/07 00:29:14;;;;;;;5.90;1.08;;;19.30;44.70;;;;;;6278407;28;20024;-69
2024/04/07 00:32:15;;;;;;;4.53;0.80;;;19.30;44.80;;;;;;6271133;28;20043;-70
2024/04/07 00:35:17;;;;;;;1.17;0.70;;;19.20;44.80;;;;;;6293194;28;20468;-67
2024/04/07 00:38:17;;;;;;;1.40;0.80;;;19.20;44.80;;;;;;6292041;28;21386;-70
2024/04/07 00:41:18;;;;;;;3.70;0.80;;;19.20;44.90;;;;;;6289012;28;20064;-69
2024/04/07 00:44:19;;;;;;;7.85;1.02;;;19.20;44.90;;;;;;6287763;28;20070;-69
2024/04/07 00:47:20;;;;;;;6.35;1.15;;;19.20;45.00;;;;;;6301570;28;20023;-69
2024/04/07 00:50:21;;;;;;;0.80;0.50;;;19.10;45.00;;;;;;6291502;28;20095;-70
2024/04/07 00:53:22;;;;;;;1.02;0.60;;;19.10;45.10;;;;;;6309604;28;20610;-69
2024/04/07 00:56:25;;;;;;;7.40;1.02;;;19.10;45.10;;;;;;6306301;28;20134;-69
2024/04/07 00:59:26;;;;;;;3.28;1.02;;;19.10;45.20;;;;;;6298620;28;20036;-69
2024/04/07 01:02:27;;;;;;;0.85;0.50;;;19.10;45.20;;;;;;6294796;28;20009;-70
2024/04/07 01:05:39;;;;;;;3.33;0.93;;;19.10;45.20;;;;;;6275831;28;20102;-69
2024/04/07 01:08:40;;;;;;;6.18;0.88;;;19.10;45.20;;;;;;6281923;28;20046;-69
2024/04/07 01:11:40;;;;;;;2.03;0.57;;;19.10;45.20;;;;;;6302488;28;20058;-71
2024/04/07 01:14:42;;;;;;;3.20;0.90;;;19.10;45.20;;;;;;6296757;28;20433;-71
2024/04/07 01:17:43;;;;;;;4.30;0.85;;;19.10;45.30;;;;;;6301585;28;20035;-70
2024/04/07 01:20:44;;;;;;;8.27;1.02;;;19.00;45.20;;;;;;6287602;28;20431;-69
2024/04/07 01:23:44;;;;;;;5.90;0.70;;;19.10;45.40;;;;;;6308405;28;20442;-69
2024/04/07 01:26:45;;;;;;;7.20;1.08;;;19.10;45.40;;;;;;6279434;28;20043;-68
2024/04/07 01:29:46;;;;;;;2.15;0.93;;;19.00;45.40;;;;;;6297114;28;20034;-69
2024/04/07 01:32:47;;;;;;;4.15;1.20;;;19.00;45.50;;;;;;6285160;28;20111;-69
2024/04/07 01:35:48;;;;;;;7.38;0.98;;;19.00;45.50;;;;;;6291374;28;20077;-69
2024/04/07 01:38:50;;;;;;;3.20;0.75;;;19.00;45.40;;;;;;6305393;28;20441;-69
2024/04/07 01:41:51;;;;;;;1.75;0.93;;;19.10;45.50;;;;;;6304503;28;20028;-71
2024/04/07 01:44:51;;;;;;;3.55;1.20;;;19.10;45.40;;;;;;6310864;28;20751;-69
2024/04/07 01:47:52;;;;;;;13.55;1.42;;;19.10;45.40;;;;;;6290955;28;20401;-70
2024/04/07 01:50:53;;;;;;;10.70;1.25;;;19.10;45.40;;;;;;6300176;28;20052;-69
2024/04/07 01:53:54;;;;;;;2.25;0.90;;;19.10;45.40;;;;;;6310851;28;20759;-70
2024/04/07 01:56:55;;;;;;;2.65;1.05;;;19.20;45.40;;;;;;6296444;28;20050;-70
2024/04/07 01:59:56;;;;;;;2.72;0.80;;;19.20;45.40;;;;;;6304307;28;20431;-68
2024/04/07 02:02:57;;;;;;;2.72;1.30;;;19.20;45.50;;;;;;6302393;28;20024;-70
2024/04/07 02:06:00;;;;;;;1.75;0.88;;;19.20;45.50;;;;;;6302640;28;20017;-69
2024/04/07 02:09:01;;;;;;;3.72;0.60;;;19.20;45.40;;;;;;6285646;28;20559;-68
2024/04/07 02:12:02;;;;;;;2.97;0.80;;;19.30;45.30;;;;;;6298179;28;20066;-69
2024/04/07 02:15:05;;;;;;;4.30;1.17;;;19.30;45.20;;;;;;6309484;28;20444;-70
2024/04/07 02:18:05;;;;;;;6.40;1.30;;;19.30;45.20;;;;;;6290356;28;20339;-70
2024/04/07 02:21:06;;;;;;;1.80;0.68;;;19.30;45.30;;;;;;6289471;28;20039;-70
2024/04/07 02:24:07;;;;;;;8.02;1.63;;;19.30;45.20;;;;;;6304244;28;20047;-69
2024/04/07 02:27:09;;;;;;;1.88;0.70;;;19.40;45.20;;;;;;6297497;28;20393;-71
2024/04/07 02:30:10;;;;;;;1.35;0.73;;;19.30;45.10;;;;;;6296099;28;20036;-68
2024/04/07 02:33:12;;;;;;;1.58;0.77;;;19.40;45.10;;;;;;6309375;28;20051;-69
2024/04/07 02:36:13;;;;;;;2.17;1.10;;;19.40;45.00;;;;;;6295432;28;20133;-69
2024/04/07 02:39:18;;;;;;;3.22;1.33;;;19.40;45.30;;;;;;6294511;28;20155;-69
2024/04/07 02:42:19;;;;;;;5.90;1.15;;;19.40;45.40;;;;;;6290967;28;20048;-69
2024/04/07 02:48:40;;;;;;;4.50;1.40;;;19.40;45.80;;;;;;6304794;28;20100;-70
2024/04/07 02:51:41;;;;;;;9.40;1.65;;;19.30;46.00;;;;;;6301414;28;20396;-69
2024/04/07 02:54:44;;;;;;;2.75;1.08;;;19.30;46.00;;;;;;6303624;28;20024;-69
2024/04/07 02:57:45;;;;;;;1.63;1.00;;;19.30;46.00;;;;;;6289879;28;20053;-70
2024/04/07 03:00:46;;;;;;;4.97;1.00;;;19.20;46.10;;;;;;6297604;28;20119;-68
2024/04/07 03:03:47;;;;;;;5.80;1.10;;;19.20;46.20;;;;;;6296540;28;20038;-69
2024/04/07 03:06:51;;;;;;;1.42;0.93;;;19.20;46.20;;;;;;6303171;28;20472;-69
2024/04/07 03:09:55;;;;;;;1.85;0.65;;;19.10;46.20;;;;;;6307720;28;20070;-73
2024/04/07 03:12:55;;;;;;;5.95;1.13;;;19.10;46.20;;;;;;6279833;28;20061;-71
2024/04/07 03:15:57;;;;;;;3.30;0.90;;;19.10;46.10;;;;;;6298021;28;20051;-70
2024/04/07 03:18:57;;;;;;;1.00;0.80;;;19.10;46.10;;;;;;6287176;28;20062;-70
2024/04/07 03:21:58;;;;;;;5.00;1.38;;;19.20;46.20;;;;;;6302044;28;20040;-69
2024/04/07 03:24:59;;;;;;;3.00;0.90;;;19.20;46.20;;;;;;6308047;28;20016;-68
2024/04/07 03:28:00;;;;;;;3.22;1.08;;;19.20;46.10;;;;;;6289152;28;20036;-70
2024/04/07 03:31:03;;;;;;;4.28;1.10;;;19.20;46.20;;;;;;6304316;28;20032;-68
2024/04/07 03:34:04;;;;;;;7.00;1.50;;;19.20;46.20;;;;;;6307716;28;20032;-69
2024/04/07 03:37:06;;;;;;;1.92;1.10;;;19.20;46.20;;;;;;6289053;28;20048;-68
2024/04/07 03:40:08;;;;;;;6.03;1.00;;;19.20;46.30;;;;;;6301072;28;20352;-69
2024/04/07 03:43:11;;;;;;;5.15;0.80;;;19.20;46.30;;;;;;6306572;28;20605;-70
2024/04/07 03:46:14;;;;;;;2.15;1.10;;;19.20;46.20;;;;;;6300989;28;20018;-69
2024/04/07 03:49:15;;;;;;;4.85;1.40;;;19.20;46.30;;;;;;6301515;28;20024;-69
2024/04/07 03:52:17;;;;;;;2.85;1.40;;;19.20;46.30;;;;;;6301231;28;21189;-70
2024/04/07 03:55:18;;;;;;;2.33;1.00;;;19.20;46.30;;;;;;6307447;28;20052;-70
2024/04/07 03:58:19;;;;;;;11.05;1.20;;;19.20;46.40;;;;;;6291601;28;20024;-70
2024/04/07 04:01:20;;;;;;;8.95;1.33;;;19.20;46.30;;;;;;6304391;28;20107;-70
2024/04/07 04:04:21;;;;;;;4.18;1.40;;;19.20;46.50;;;;;;6307670;28;20058;-67
2024/04/07 04:07:26;;;;;;;3.80;1.33;;;19.20;46.40;;;;;;6301510;28;20039;-68
2024/04/07 04:10:27;;;;;;;6.07;1.77;;;19.30;46.40;;;;;;6291665;28;20099;-69
2024/04/07 04:13:29;;;;;;;3.58;1.40;;;19.20;46.50;;;;;;6268433;28;20184;-69
2024/04/07 04:16:30;;;;;;;7.97;1.30;;;19.20;46.50;;;;;;6301454;28;20028;-69
2024/04/07 04:19:31;;;;;;;3.88;0.95;;;19.20;46.50;;;;;;6304959;28;20028;-69
2024/04/07 04:22:32;;;;;;;2.67;1.00;;;19.20;46.50;;;;;;6287948;28;20382;-69
2024/04/07 04:25:33;;;;;;;5.53;0.77;;;19.20;46.60;;;;;;6298709;28;20035;-69
2024/04/07 04:28:34;;;;;;;4.47;1.05;;;19.20;46.80;;;;;;6284299;28;20105;-68
2024/04/07 04:31:35;;;;;;;5.18;1.20;;;19.20;46.80;;;;;;6301263;28;20138;-69
2024/04/07 04:34:36;;;;;;;1.85;0.90;;;19.20;46.70;;;;;;6305720;28;20046;-69
2024/04/07 04:37:36;;;;;;;3.53;0.88;;;19.20;46.70;;;;;;6289093;28;20028;-69
2024/04/07 04:40:37;;;;;;;8.40;1.23;;;19.20;46.70;;;;;;6282214;28;20225;-71
2024/04/07 04:43:39;;;;;;;8.18;1.27;;;19.20;46.70;;;;;;6296869;28;20028;-70
2024/04/07 04:46:44;;;;;;;5.65;0.93;;;19.20;46.70;;;;;;6275577;28;20030;-69
2024/04/07 04:49:46;;;;;;;2.05;0.80;;;19.20;46.60;;;;;;6275761;28;20440;-70
2024/04/07 04:52:47;;;;;;;2.80;0.85;;;19.30;46.60;;;;;;6281488;28;20020;-69
2024/04/07 04:55:48;;;;;;;5.80;1.00;;;19.30;46.60;;;;;;6290058;28;20027;-70
2024/04/07 04:58:49;;;;;;;2.40;0.85;;;19.30;46.60;;;;;;6295282;28;20341;-70
2024/04/07 05:01:50;;;;;;;12.57;1.30;;;19.30;46.60;;;;;;6294007;28;20134;-71
2024/04/07 05:04:51;;;;;;;4.32;0.90;;;19.10;46.50;;;;;;6279424;28;20568;-70
2024/04/07 05:07:51;;;;;;;1.90;0.80;;;19.30;46.60;;;;;;6303120;28;20058;-69
2024/04/07 05:11:03;;;;;;;7.43;1.02;;;19.30;46.50;;;;;;6300937;28;20536;-69
2024/04/07 05:14:03;;;;;;;7.20;1.40;;;19.30;46.60;;;;;;6304048;28;20065;-69
2024/04/07 05:17:04;;;;;;;3.63;1.05;;;19.30;47.30;;;;;;6301522;28;20548;-69
2024/04/07 05:20:06;;;;;;;7.10;1.27;;;19.20;46.70;;;;;;6289172;28;20032;-68
2024/04/07 05:23:06;;;;;;;7.25;1.40;;;19.20;46.80;;;;;;6275454;28;21726;-69
2024/04/07 05:26:18;;;;;;;3.10;1.20;;;19.20;46.90;;;;;;6291388;28;20330;-69
2024/04/07 05:29:18;;;;;;;4.93;1.45;;;19.20;47.10;;;;;;6295228;28;20464;-70
2024/04/07 05:32:19;;;;;;;3.85;1.77;;;19.20;47.20;;;;;;6299909;28;20020;-68
2024/04/07 05:35:21;;;;;;;7.68;1.67;;;19.20;47.30;;;;;;6299742;28;20107;-69
2024/04/07 05:38:22;;;;;;;7.88;1.58;;;19.20;47.40;;;;;;6303350;28;20040;-70
2024/04/07 05:41:23;;;;;;;3.22;1.02;;;19.10;47.60;;;;;;6290702;28;20167;-69
2024/04/07 05:44:24;;;;;;;5.53;1.38;;;19.10;47.60;;;;;;6282520;28;20024;-69
2024/04/07 05:47:25;;;;;;;2.15;1.00;;;19.10;47.70;;;;;;6306159;28;20074;-70
2024/04/07 05:50:26;;;;;;;3.40;1.63;;;19.00;47.60;;;;;;6301710;28;20024;-70
2024/04/07 05:53:27;;;;;;;3.75;1.35;;;19.00;47.80;;;;;;6297347;28;20441;-70
2024/04/07 05:56:28;;;;;;;9.15;1.23;;;19.00;47.90;;;;;;6289081;28;20075;-69
2024/04/07 05:59:28;;;;;;;1.95;1.45;;;19.00;48.10;;;;;;6294707;28;20428;-69
2024/04/07 06:02:29;;;;;;;4.43;2.03;;;18.90;48.10;;;;;;6310089;28;20461;-68
2024/04/07 06:05:33;;;;;;;2.08;1.20;;;18.90;48.30;;;;;;6310199;28;20030;-69
2024/04/07 06:08:33;;;;;;;3.65;1.30;;;18.90;48.30;;;;;;6291230;28;20410;-70
2024/04/07 06:11:35;;;;;;;10.70;1.50;;;18.90;48.30;;;;;;6307204;28;20016;-69
2024/04/07 06:14:35;;;;;;;5.07;1.20;;;18.90;48.20;;;;;;6275873;28;20109;-70
2024/04/07 06:17:36;;;;;;;5.90;1.52;;;19.00;48.20;;;;;;6290850;28;20046;-69
2024/04/07 06:20:37;;;;;;;6.45;1.67;;;18.90;48.10;;;;;;6302062;28;20161;-71
2024/04/07 06:23:41;;;;;;;6.15;1.25;;;19.00;48.10;;;;;;6299345;28;20469;-68
2024/04/07 06:26:41;;;;;;;2.80;1.30;;;19.00;48.10;;;;;;6298830;28;20551;-69
2024/04/07 06:29:42;;;;;;;8.38;1.52;;;19.10;48.10;;;;;;6274581;28;20047;-70
2024/04/07 06:32:44;;;;;;;2.88;1.25;;;19.10;48.00;;;;;;6296901;28;20098;-69
2024/04/07 06:35:45;;;;;;;4.18;1.77;;;19.10;47.90;;;;;;6290884;28;20158;-69
2024/04/07 06:38:46;;;;;;;5.70;1.63;;;19.20;47.80;;;;;;6300320;28;20024;-69
2024/04/07 06:41:47;;;;;;;4.45;1.67;;;19.30;47.70;;;;;;6281081;28;20076;-69
2024/04/07 06:44:48;;;;;;;5.82;1.70;;;19.40;47.70;;;;;;6286858;28;20040;-70
2024/04/07 06:47:49;;;;;;;18.27;2.10;;;19.40;47.50;;;;;;6297998;28;20023;-69
2024/04/07 06:50:51;;;;;;;5.28;1.75;;;19.40;47.50;;;;;;6275507;28;20414;-69
2024/04/07 06:53:51;;;;;;;5.85;1.33;;;19.50;47.50;;;;;;6300959;28;20432;-68
2024/04/07 06:56:52;;;;;;;8.10;1.58;;;19.50;47.40;;;;;;6297045;28;20142;-70
2024/04/07 06:59:55;;;;;;;3.42;1.38;;;19.60;47.30;;;;;;6299369;28;20038;-69
2024/04/07 07:02:55;;;;;;;8.23;1.40;;;19.70;47.20;;;;;;6302926;28;20588;-68
2024/04/07 07:05:58;;;;;;;3.85;1.55;;;19.70;47.00;;;;;;6299310;28;20028;-70
2024/04/07 07:08:59;;;;;;;4.60;1.20;;;19.80;47.00;;;;;;6266030;28;20036;-70
2024/04/07 07:12:00;;;;;;;3.10;0.93;;;19.90;46.90;;;;;;6286411;28;20032;-68
2024/04/07 07:15:01;;;;;;;7.72;1.60;;;19.90;46.90;;;;;;6298891;28;21013;-69
2024/04/07 07:18:02;;;;;;;4.30;1.50;;;20.00;46.80;;;;;;6277303;28;20528;-70
2024/04/07 07:21:06;;;;;;;7.60;1.77;;;20.10;46.70;;;;;;6301214;28;20120;-68
2024/04/07 07:24:07;;;;;;;9.82;1.42;;;20.10;46.60;;;;;;6302862;28;20027;-69
2024/04/07 07:27:09;;;;;;;7.38;1.77;;;20.10;46.60;;;;;;6283314;28;20028;-70
2024/04/07 07:30:10;;;;;;;3.00;1.60;;;20.10;46.50;;;;;;6292837;28;20016;-70
2024/04/07 07:33:10;;;;;;;6.85;1.83;;;20.10;46.50;;;;;;6299247;28;20016;-71
2024/04/07 07:36:11;;;;;;;11.50;2.47;;;20.10;46.40;;;;;;6285791;28;20577;-68
2024/04/07 07:39:13;;;;;;;6.55;1.67;;;20.20;46.50;;;;;;6299406;28;20496;-69
2024/04/07 07:42:14;;;;;;;2.10;1.63;;;20.20;46.40;;;;;;6298087;28;20032;-71
2024/04/07 07:45:20;;;;;;;7.75;1.90;;;20.30;46.20;;;;;;6295162;28;20027;-69
2024/04/07 07:48:21;;;;;;;4.88;1.73;;;20.30;46.00;;;;;;6291636;28;20082;-69
2024/04/07 07:51:22;;;;;;;11.00;2.38;;;20.40;46.00;;;;;;6284324;28;20065;-69
2024/04/07 07:54:24;;;;;;;8.95;2.00;;;20.50;45.90;;;;;;6267637;28;20528;-70
2024/04/07 07:57:25;;;;;;;7.30;1.77;;;20.50;45.70;;;;;;6285920;28;20051;-70
2024/04/07 08:00:25;;;;;;;4.82;1.95;;;20.60;45.60;;;;;;6285193;28;20048;-69
2024/04/07 08:03:26;;;;;;;4.65;1.95;;;20.70;45.50;;;;;;6285228;28;20025;-71
2024/04/07 08:06:28;;;;;;;4.30;1.60;;;20.70;45.30;;;;;;6285248;28;20013;-70
2024/04/07 08:09:29;;;;;;;5.97;1.90;;;20.80;45.20;;;;;;6284625;28;20089;-70
2024/04/07 08:12:31;;;;;;;4.20;1.52;;;20.80;45.00;;;;;;6269674;28;20016;-71
2024/04/07 08:15:32;;;;;;;9.60;1.92;;;20.90;44.80;;;;;;6286381;28;20028;-71
2024/04/07 08:18:33;;;;;;;6.28;2.50;;;21.00;44.70;;;;;;6267785;28;20089;-72
2024/04/07 08:21:35;;;;;;;11.43;2.13;;;21.00;44.40;;;;;;6290886;28;20031;-71
2024/04/07 08:24:36;;;;;;;1.90;1.48;;;21.10;44.20;;;;;;6293443;28;20012;-71
2024/04/07 08:27:37;;;;;;;4.25;1.67;;;21.20;43.80;;;;;;6287157;28;20111;-69
2024/04/07 08:30:38;;;;;;;2.58;1.35;;;21.20;43.60;;;;;;6267573;28;20117;-72
2024/04/07 08:33:39;;;;;;;4.47;1.45;;;21.20;43.30;;;;;;6284961;28;20035;-71
2024/04/07 08:36:40;;;;;;;8.38;1.52;;;21.20;43.00;;;;;;6288975;28;20079;-70
2024/04/07 08:39:40;;;;;;;4.28;1.63;;;21.30;43.00;;;;;;6283010;28;20036;-71
2024/04/07 08:42:43;;;;;;;4.45;1.65;;;21.30;42.90;;;;;;6293512;28;20020;-71
2024/04/07 08:45:49;;;;;;;7.82;2.17;;;21.40;42.80;;;;;;6298995;28;20066;-71
2024/04/07 08:48:53;;;;;;;7.95;1.52;;;21.40;42.70;;;;;;6304462;28;20062;-70
2024/04/07 08:51:55;;;;;;;12.20;2.22;;;21.50;42.50;;;;;;6300817;28;20078;-70
2024/04/07 08:54:57;;;;;;;11.18;1.70;;;21.40;42.30;;;;;;6291530;28;20027;-71
2024/04/07 08:57:59;;;;;;;6.90;1.73;;;21.60;42.10;;;;;;6288141;28;20036;-71
2024/04/07 09:01:01;;;;;;;5.30;1.38;;;21.60;41.80;;;;;;6286106;28;20077;-70
2024/04/07 09:04:02;;;;;;;7.20;1.80;;;21.60;41.70;;;;;;6277956;28;20025;-71
2024/04/07 09:07:04;;;;;;;5.65;2.25;;;21.70;41.70;;;;;;6287982;28;20205;-69
2024/04/07 09:10:05;;;;;;;4.70;1.45;;;21.80;41.60;;;;;;6288363;28;20353;-70
2024/04/07 09:13:06;;;;;;;4.78;1.80;;;21.90;41.40;;;;;;6288881;28;20449;-70
2024/04/07 09:16:07;;;;;;;6.07;1.65;;;21.90;41.30;;;;;;6291694;28;20040;-71
2024/04/07 09:19:08;;;;;;;12.95;2.03;;;22.00;41.20;;;;;;6303397;28;20028;-70
2024/04/07 09:22:09;;;;;;;5.57;1.77;;;22.00;41.10;;;;;;6293734;28;20035;-70
2024/04/07 09:25:13;;;;;;;5.65;1.70;;;22.10;41.10;;;;;;6302856;28;20040;-71
2024/04/07 09:28:14;;;;;;;3.75;1.30;;;22.10;41.10;;;;;;6306267;28;20020;-71
2024/04/07 09:31:16;;;;;;;3.33;1.27;;;22.20;41.20;;;;;;6302140;28;20031;-71
2024/04/07 09:34:16;;;;;;;6.20;1.67;;;22.30;41.30;;;;;;6303392;28;20068;-70
2024/04/07 09:37:17;;;;;;;4.88;1.40;;;22.40;41.20;;;;;;6303077;28;20112;-70
2024/04/07 09:40:18;;;;;;;4.20;1.30;;;22.50;41.10;;;;;;6309810;28;20146;-70
2024/04/07 09:43:20;;;;;;;5.20;2.13;;;22.50;40.90;;;;;;6289513;28;20068;-70
2024/04/07 09:46:22;;;;;;;6.07;1.73;;;22.60;40.90;;;;;;6291408;28;20042;-70
2024/04/07 09:49:26;;;;;;;10.20;1.52;;;22.60;40.70;;;;;;6298127;28;20031;-70
2024/04/07 09:52:40;;;;;;;7.00;1.90;;;22.70;40.40;;;;;;6282026;28;20020;-70
2024/04/07 09:55:43;;;;;;;9.27;1.52;;;22.70;40.30;;;;;;6298139;28;20567;-69
2024/04/07 09:58:44;;;;;;;7.60;1.88;;;22.80;40.20;;;;;;6288255;28;20176;-70
2024/04/07 10:01:45;;;;;;;6.38;1.45;;;22.90;40.10;;;;;;6278554;28;20455;-69
2024/04/07 10:04:46;;;;;;;5.00;1.10;;;22.90;40.00;;;;;;6287810;28;20068;-70
2024/04/07 10:07:48;;;;;;;5.18;1.15;;;23.00;40.00;;;;;;6304174;28;20028;-70
2024/04/07 10:10:48;;;;;;;2.30;1.13;;;23.10;39.90;;;;;;6299472;28;20020;-68
2024/04/07 10:13:49;;;;;;;5.47;1.17;;;23.10;39.90;;;;;;6293491;28;20441;-70
2024/04/07 10:16:51;;;;;;;6.13;1.25;;;23.20;39.80;;;;;;6293004;28;20524;-70
2024/04/07 10:19:54;;;;;;;6.18;1.08;;;23.20;39.80;;;;;;6309169;28;20552;-69
2024/04/07 10:22:55;;;;;;;10.88;1.83;;;23.20;39.80;;;;;;6308197;28;20164;-71
2024/04/07 10:26:03;;;;;;;3.40;1.23;;;23.30;39.70;;;;;;6303011;28;20647;-70
2024/04/07 10:29:07;;;;;;;5.38;1.35;;;23.40;39.60;;;;;;6292330;28;20021;-71
2024/04/07 10:32:27;;;;;;;4.03;1.33;;;23.50;39.40;;;;;;6286180;28;20024;-71
2024/04/07 10:35:28;;;;;;;7.88;1.83;;;23.60;39.30;;;;;;6304386;28;20024;-72
2024/04/07 10:39:10;;;;;;;4.80;1.77;;;23.60;39.30;;;;;;6306773;28;20356;-70
2024/04/07 10:42:12;;;;;;;6.32;1.60;;;23.60;39.30;;;;;;6272079;28;20111;-69
2024/04/07 10:45:13;;;;;;;8.40;1.90;;;23.70;39.20;;;;;;6274264;28;20065;-70
2024/04/07 10:48:14;;;;;;;11.32;1.75;;;23.70;39.10;;;;;;6269584;28;20504;-71
2024/04/07 10:51:18;;;;;;;11.63;2.03;;;23.80;39.10;;;;;;6301192;28;20103;-71
2024/04/07 10:54:19;;;;;;;6.63;1.25;;;23.80;39.00;;;;;;6285050;28;20024;-70
2024/04/07 10:57:20;;;;;;;6.28;1.83;;;23.90;38.90;;;;;;6300787;28;20024;-71
2024/04/07 11:00:21;;;;;;;12.68;1.90;;;23.90;38.80;;;;;;6285929;28;20131;-70
2024/04/07 11:03:22;;;;;;;3.50;1.58;;;23.90;38.60;;;;;;6290368;28;20044;-71
2024/04/07 11:06:23;;;;;;;18.02;1.92;;;24.00;38.70;;;;;;6297621;28;20380;-70
2024/04/07 11:09:24;;;;;;;5.82;1.55;;;24.00;38.40;;;;;;6296613;28;20027;-69
2024/04/07 11:12:27;;;;;;;4.35;1.33;;;24.10;38.30;;;;;;6266993;28;20024;-70
2024/04/07 11:15:29;;;;;;;9.73;1.50;;;24.20;38.10;;;;;;6295404;28;20020;-71
2024/04/07 11:18:32;;;;;;;4.90;1.50;;;24.20;37.90;;;;;;6297865;28;20055;-71
2024/04/07 11:21:32;;;;;;;7.97;1.38;;;24.30;37.80;;;;;;6307774;28;20089;-70
2024/04/07 11:24:33;;;;;;;6.40;1.42;;;24.40;37.70;;;;;;6285547;28;20514;-70
2024/04/07 11:27:34;;;;;;;2.47;1.00;;;24.50;37.50;;;;;;6285877;28;20027;-70
2024/04/07 11:30:37;;;;;;;5.32;1.50;;;24.60;37.30;;;;;;6283918;28;20016;-71
2024/04/07 11:33:38;;;;;;;9.68;1.25;;;24.70;37.20;;;;;;6276813;28;20008;-69
2024/04/07 11:36:39;;;;;;;7.45;1.27;;;24.80;37.00;;;;;;6272486;28;20016;-71
2024/04/07 11:39:40;;;;;;;5.30;1.15;;;25.00;36.80;;;;;;6265895;28;20504;-70
2024/04/07 11:42:41;;;;;;;3.92;1.00;;;25.40;36.50;;;;;;6285795;28;20569;-70
2024/04/07 11:45:42;;;;;;;8.38;1.77;;;25.30;36.10;;;;;;6305726;28;20421;-70
2024/04/07 11:48:42;;;;;;;4.85;1.73;;;25.30;35.80;;;;;;6302729;28;20035;-70
2024/04/07 11:51:43;;;;;;;2.03;0.80;;;25.40;35.60;;;;;;6266079;28;20024;-70
2024/04/07 11:54:44;;;;;;;10.98;1.42;;;25.40;35.00;;;;;;6304022;28;20012;-69
2024/04/07 11:57:45;;;;;;;4.60;1.80;;;25.50;34.40;;;;;;6305895;28;20087;-69
2024/04/07 12:00:46;;;;;;;6.00;1.40;;;25.50;34.30;;;;;;6290113;28;20369;-70
2024/04/07 12:03:47;;;;;;;4.30;1.33;;;25.40;34.80;;;;;;6303783;28;20417;-70
2024/04/07 12:06:48;;;;;;;2.42;1.20;;;25.40;34.00;;;;;;6290091;28;20344;-70
2024/04/07 12:09:49;;;;;;;7.43;1.15;;;25.40;34.00;;;;;;6301279;28;20421;-70
2024/04/07 12:12:50;;;;;;;3.58;1.00;;;25.50;34.10;;;;;;6283590;28;20394;-72
2024/04/07 12:15:50;;;;;;;4.88;1.40;;;25.60;33.70;;;;;;6286050;28;20099;-71
2024/04/07 12:18:51;;;;;;;3.00;1.30;;;25.60;33.40;;;;;;6267071;28;21619;-70
2024/04/07 12:21:55;;;;;;;4.15;1.23;;;25.60;33.30;;;;;;6306442;28;20468;-70
2024/04/07 12:24:56;;;;;;;2.90;1.02;;;25.70;33.10;;;;;;6295717;28;20031;-71
2024/04/07 12:27:57;;;;;;;8.82;1.60;;;25.80;33.10;;;;;;6274752;28;20028;-71
2024/04/07 12:30:57;;;;;;;3.60;1.00;;;25.80;32.80;;;;;;6294123;28;20108;-70
2024/04/07 12:34:01;;;;;;;4.03;1.38;;;25.80;32.70;;;;;;6287726;28;20500;-70
2024/04/07 12:37:02;;;;;;;2.65;0.88;;;25.80;32.70;;;;;;6287745;28;20038;-71
2024/04/07 12:40:04;;;;;;;2.92;1.05;;;25.90;32.70;;;;;;6286010;28;21240;-70
2024/04/07 12:43:05;;;;;;;4.50;0.98;;;26.10;32.60;;;;;;6284346;28;20429;-70
2024/04/07 12:46:06;;;;;;;2.70;0.95;;;26.10;32.30;;;;;;6265162;28;20329;-72
2024/04/07 12:49:07;;;;;;;5.45;1.10;;;26.10;32.20;;;;;;6283419;28;20035;-70
2024/04/07 12:52:08;;;;;;;3.45;1.17;;;26.10;32.20;;;;;;6283995;28;20089;-70
2024/04/07 12:55:11;;;;;;;5.47;1.15;;;26.10;31.90;;;;;;6264377;28;20095;-71
2024/04/07 12:58:12;;;;;;;4.57;1.20;;;25.90;32.10;;;;;;6288917;28;20052;-70
2024/04/07 13:01:13;;;;;;;5.20;0.80;;;25.80;32.10;;;;;;6293602;28;20043;-70
2024/04/07 13:04:14;;;;;;;6.85;0.85;;;25.70;32.10;;;;;;6284121;28;20040;-71
2024/04/07 13:07:14;;;;;;;9.07;1.05;;;25.70;32.30;;;;;;6304048;28;20392;-70
2024/04/07 13:10:17;;;;;;;3.67;1.42;;;25.60;32.40;;;;;;6292478;28;20012;-71
2024/04/07 13:13:18;;;;;;;11.23;1.33;;;25.50;32.50;;;;;;6263547;28;20021;-71
2024/04/07 13:16:19;;;;;;;8.35;1.20;;;25.50;32.60;;;;;;6300520;28;20411;-70
2024/04/07 13:19:20;;;;;;;10.23;0.98;;;25.60;32.60;;;;;;6297366;28;20519;-70
2024/04/07 13:22:20;;;;;;;4.30;1.35;;;25.60;32.20;;;;;;6302089;28;20081;-68
2024/04/07 13:25:21;;;;;;;2.60;0.88;;;25.60;32.10;;;;;;6299975;28;20336;-70
2024/04/07 13:28:22;;;;;;;7.00;0.95;;;25.70;32.20;;;;;;6288073;28;20051;-69
2024/04/07 13:31:23;;;;;;;8.55;1.25;;;25.80;32.00;;;;;;6306429;28;20102;-70
2024/04/07 13:34:24;;;;;;;6.88;1.42;;;26.00;31.70;;;;;;6292392;28;20034;-70
2024/04/07 13:37:25;;;;;;;7.15;1.20;;;26.00;31.60;;;;;;6288769;28;20012;-70
2024/04/07 13:40:26;;;;;;;7.15;1.00;;;26.00;31.60;;;;;;6294597;28;20054;-70
2024/04/07 13:43:27;;;;;;;2.97;1.02;;;26.00;31.60;;;;;;6306132;28;20031;-71
2024/04/07 13:46:28;;;;;;;5.95;1.08;;;25.90;31.60;;;;;;6298505;28;20660;-70
2024/04/07 13:49:30;;;;;;;2.13;0.90;;;25.80;31.70;;;;;;6285950;28;20028;-71
2024/04/07 13:52:31;;;;;;;5.80;1.25;;;25.80;31.80;;;;;;6265282;28;20441;-69
2024/04/07 13:55:32;;;;;;;3.58;1.40;;;25.80;31.90;;;;;;6301735;28;20016;-71
2024/04/07 13:58:33;;;;;;;15.40;1.55;;;25.80;31.90;;;;;;6305527;28;20021;-71
2024/04/07 14:01:34;;;;;;;2.25;0.82;;;26.00;31.90;;;;;;6300623;28;20119;-70
2024/04/07 14:04:35;;;;;;;2.40;0.90;;;26.10;31.50;;;;;;6302800;28;20015;-71
2024/04/07 14:07:36;;;;;;;3.67;0.95;;;26.20;31.40;;;;;;6307382;28;20012;-71
2024/04/07 14:10:37;;;;;;;6.75;0.82;;;26.20;31.30;;;;;;6309691;28;20016;-71
2024/04/07 14:13:38;;;;;;;4.28;1.10;;;26.20;31.20;;;;;;6267421;28;20039;-71
2024/04/07 14:16:42;;;;;;;11.80;1.00;;;26.20;31.20;;;;;;6285260;28;20803;-71
2024/04/07 14:19:43;;;;;;;4.80;1.23;;;26.10;31.20;;;;;;6290720;28;20033;-71
2024/04/07 14:22:44;;;;;;;3.42;0.90;;;26.20;31.20;;;;;;6286545;28;20050;-71
2024/04/07 14:25:44;;;;;;;4.05;1.10;;;26.20;31.20;;;;;;6302028;28;20027;-71
2024/04/07 14:28:45;;;;;;;5.90;1.23;;;26.20;31.30;;;;;;6293624;28;20085;-70
2024/04/07 14:31:46;;;;;;;3.67;1.20;;;26.10;31.20;;;;;;6302105;28;20031;-71
2024/04/07 14:34:47;;;;;;;4.00;1.17;;;26.10;31.30;;;;;;6284993;28;20028;-70
2024/04/07 14:37:48;;;;;;;7.85;1.33;;;26.10;31.50;;;;;;6284129;28;20035;-72
2024/04/07 14:40:49;;;;;;;4.00;1.00;;;26.00;31.60;;;;;;6303190;28;20400;-71
2024/04/07 14:43:50;;;;;;;10.57;1.45;;;25.90;31.70;;;;;;6309240;28;20150;-72
2024/04/07 14:46:51;;;;;;;4.63;1.10;;;25.80;31.80;;;;;;6268604;28;20028;-69
2024/04/07 14:49:54;;;;;;;6.85;1.15;;;25.80;31.80;;;;;;6296403;28;20031;-71
2024/04/07 14:52:56;;;;;;;3.78;1.00;;;25.70;32.00;;;;;;6276743;28;20571;-72
2024/04/07 14:56:00;;;;;;;3.20;1.20;;;25.70;32.20;;;;;;6293387;28;20032;-71
2024/04/07 14:59:00;;;;;;;5.35;0.95;;;25.70;32.30;;;;;;6306019;28;20047;-70
2024/04/07 15:02:04;;;;;;;8.70;1.70;;;25.60;32.40;;;;;;6296414;28;20017;-70
2024/04/07 15:05:05;;;;;;;6.35;1.45;;;25.50;32.50;;;;;;6286935;28;20157;-72
2024/04/07 15:08:08;;;;;;;5.35;1.38;;;25.40;32.60;;;;;;6305489;28;20162;-70
2024/04/07 15:11:09;;;;;;;5.13;1.00;;;25.30;32.70;;;;;;6284141;28;20085;-71
2024/04/07 15:14:09;;;;;;;8.98;0.90;;;25.20;32.90;;;;;;6308797;28;20028;-71
2024/04/07 15:17:13;;;;;;;4.60;1.13;;;25.20;33.00;;;;;;6305375;28;20059;-69
2024/04/07 15:20:14;;;;;;;4.22;1.83;;;25.20;33.10;;;;;;6267512;28;20033;-69
2024/04/07 15:23:15;;;;;;;2.80;0.98;;;25.20;33.30;;;;;;6291276;28;20016;-71
2024/04/07 15:26:15;;;;;;;2.83;1.00;;;25.10;33.30;;;;;;6293258;28;20429;-69
2024/04/07 15:29:16;;;;;;;2.30;0.98;;;25.10;33.50;;;;;;6289587;28;20011;-69
2024/04/07 15:32:17;;;;;;;8.60;1.10;;;25.20;33.60;;;;;;6285000;28;20039;-69
2024/04/07 15:35:18;;;;;;;10.23;1.15;;;24.90;33.60;;;;;;6289026;28;20020;-70
2024/04/07 15:38:20;;;;;;;5.75;0.93;;;24.90;33.70;;;;;;6296954;28;20068;-71
2024/04/07 15:41:21;;;;;;;4.60;1.10;;;24.90;33.60;;;;;;6285574;28;20017;-68
2024/04/07 15:44:22;;;;;;;6.18;1.08;;;24.90;33.70;;;;;;6269215;28;20495;-71
2024/04/07 15:47:24;;;;;;;3.40;1.13;;;24.90;33.80;;;;;;6275817;28;20012;-67